Thursday, September 20, 2018, 10:10 PM EDT
Back to Local

KSFM, Sanford, Sanford Regional Airport

Location: Sanford, ME, United States Lat: 43.4
Local Time: 10:10 PM EDT ( 2:10 GMT) Lon: -70.717
Time Zone: US/Eastern Elev: 242 ft

Show me the last for .
Show Decoded

2018-09-20 20:56 METAR KSFM 210056Z AUTO 00000KT 10SM CLR 12/11 A3032 RMK AO2 SLP269 T01170111 =
2018-09-20 19:56 METAR KSFM 202356Z AUTO 00000KT 10SM OVC120 13/12 A3031 RMK AO2 SLP268 T01280122
                 10161 20128 53012 =
2018-09-20 18:56 METAR KSFM 202256Z AUTO 00000KT 10SM FEW050 SCT120 13/12 A3030 RMK AO2 SLP265
                 T01280122 =
2018-09-20 17:56 METAR KSFM 202156Z AUTO 00000KT 10SM SCT043 14/12 A3029 RMK AO2 SLP259 T01390117
                 =
2018-09-20 16:56 METAR KSFM 202056Z AUTO 11007KT 10SM FEW014 OVC045 15/12 A3028 RMK AO2 SLP256
                 T01500117 51002 =
2018-09-20 15:56 METAR KSFM 201956Z AUTO VRB04KT 10SM OVC041 15/12 A3028 RMK AO2 SLP255 T01500117
                 =
2018-09-20 15:31 METAR KSFM 201931Z AUTO 12005KT 10SM FEW015 SCT023 OVC043 15/12 A3027 RMK AO2 =
2018-09-20 14:56 METAR KSFM 201856Z AUTO 11005KT 10SM BKN017 OVC043 16/12 A3028 RMK AO2 SLP257
                 T01560117 =
2018-09-20 14:48 METAR KSFM 201848Z AUTO 10006KT 10SM BKN017 OVC043 16/12 A3028 RMK AO2 =
2018-09-20 14:12 METAR KSFM 201812Z AUTO VRB03KT 10SM FEW016 SCT024 OVC043 16/12 A3027 RMK AO2 =
2018-09-20 13:56 METAR KSFM 201756Z AUTO 15005KT 10SM BKN016 BKN022 OVC032 16/12 A3027 RMK AO2
                 SLP253 T01560122 10161 20133 56009 =
2018-09-20 13:53 METAR KSFM 201753Z AUTO VRB03KT 10SM BKN016 OVC022 16/12 A3027 RMK AO2 =
2018-09-20 13:29 METAR KSFM 201729Z AUTO 11005KT 10SM BKN013 OVC021 16/12 A3028 RMK AO2 =
2018-09-20 13:22 METAR KSFM 201722Z AUTO 17006KT 10SM SCT013 BKN018 16/12 A3028 RMK AO2 =
2018-09-20 13:10 METAR KSFM 201710Z AUTO 17005KT 10SM BKN013 BKN018 BKN045 16/12 A3029 RMK AO2 =
2018-09-20 12:56 METAR KSFM 201656Z AUTO VRB05KT 10SM SCT013 BKN045 16/12 A3028 RMK AO2 SLP257
                 T01560122 =
2018-09-20 12:12 METAR KSFM 201612Z AUTO VRB03KT 10SM FEW013 SCT022 OVC045 15/12 A3030 RMK AO2 =
2018-09-20 12:05 METAR KSFM 201605Z AUTO 12004KT 10SM FEW015 BKN022 OVC045 15/13 A3030 RMK AO2 =
2018-09-20 11:56 METAR KSFM 201556Z AUTO 13004KT 10SM SCT020 OVC045 15/12 A3030 RMK AO2 SLP263
                 T01500122 =
2018-09-20 11:52 METAR KSFM 201552Z AUTO VRB03KT 10SM SCT020 OVC045 15/13 A3030 RMK AO2 =
2018-09-20 11:07 METAR KSFM 201507Z AUTO VRB04KT 10SM BKN015 OVC021 15/12 A3030 RMK AO2 =
2018-09-20 10:56 METAR KSFM 201456Z AUTO 11003KT 10SM BKN014 OVC021 15/12 A3030 RMK AO2 SLP262
                 T01500117 51015 =
2018-09-20 09:56 METAR KSFM 201356Z AUTO 04006KT 10SM OVC012 15/13 A3029 RMK AO2 SLP260 T01500128
                 =
2018-09-20 09:14 METAR KSFM 201314Z AUTO 04006KT 10SM SCT008 OVC013 14/12 A3028 RMK AO2 =
2018-09-20 08:56 METAR KSFM 201256Z AUTO 03006KT 10SM OVC011 14/12 A3027 RMK AO2 CIG 007V013
                 SLP254 T01390122 =
2018-09-20 08:16 METAR KSFM 201216Z AUTO 04006KT 10SM OVC011 13/13 A3025 RMK AO2 =
2018-09-20 08:05 METAR KSFM 201205Z AUTO 02006KT 10SM BKN008 OVC014 13/12 A3025 RMK AO2 CIG
                 005V011 =
2018-09-20 07:56 METAR KSFM 201156Z AUTO 03006KT 10SM SCT006 OVC014 13/13 A3025 RMK AO2 RAE34
                 PRESRR SLP249 P0001 60004 7//// T01330128 10139 20128 53024 =
2018-09-20 07:37 METAR KSFM 201137Z AUTO 02006KT 10SM BKN006 OVC014 13/13 A3023 RMK AO2 RAE34 CIG
                 004V009 P0001 =
2018-09-20 06:56 METAR KSFM 201056Z AUTO 04006KT 4SM -RA BR 13/13 A3022 RMK AO2 RAB47 SLP234
                 P0000 T01330128 $ =
2018-09-20 06:27 METAR KSFM 201027Z AUTO 06005KT 3SM BR BKN005 OVC017 13/13 A3020 RMK AO2 CIG
                 004V008 =
2018-09-20 06:05 METAR KSFM 201005Z AUTO 04003KT 10SM OVC007 13/13 A3020 RMK AO2 CIG 005V010 =
2018-09-20 05:56 METAR KSFM 200956Z AUTO 04004KT 10SM OVC005 13/13 A3020 RMK AO2 CIG 005V009
                 SLP228 P0003 T01330128 =
2018-09-20 04:56 METAR KSFM 200856Z AUTO 05005KT 8SM OVC005 13/13 A3018 RMK AO2 RAE26 CIG 004V007
                 SLP223 P0000 60000 T01330128 51009 =
2018-09-20 04:17 METAR KSFM 200817Z AUTO 03004KT 3SM -RA BR BKN005 OVC009 13/13 A3019 RMK AO2 CIG
                 003V007 P0000 =
2018-09-20 03:56 METAR KSFM 200756Z AUTO 06004KT 2 1/2SM -RA BR OVC007 13/13 A3018 RMK AO2 RAB53
                 CIG 004V009 SLP223 P0000 T01330128 =
2018-09-20 03:36 METAR KSFM 200736Z AUTO 05005KT 7SM BKN009 OVC013 13/12 A3017 RMK AO2 =
2018-09-20 03:22 METAR KSFM 200722Z AUTO 03006KT 10SM OVC013 14/12 A3017 RMK AO2 =
2018-09-20 02:56 METAR KSFM 200656Z AUTO 02006KT 10SM OVC015 14/12 A3017 RMK AO2 SLP220 T01390122
                 =
2018-09-20 02:16 METAR KSFM 200616Z AUTO 02005KT 10SM BKN015 OVC043 13/12 A3016 RMK AO2 =
2018-09-20 01:56 METAR KSFM 200556Z AUTO 03005KT 10SM OVC043 13/12 A3016 RMK AO2 SLP215 T01330122
                 10150 20128 51008 =
2018-09-20 00:56 METAR KSFM 200456Z AUTO 02005KT 10SM OVC048 13/12 A3015 RMK AO2 SLP213 T01330117
                 =
2018-09-19 23:56 METAR KSFM 200356Z AUTO 02005KT 10SM CLR 13/12 A3014 RMK AO2 SLP210 T01280117
                 402000128 =
2018-09-19 22:56 METAR KSFM 200256Z AUTO 04004KT 10SM OVC055 13/12 A3013 RMK AO2 SLP205 T01330122
                 51013 =

Support USWX by starting your Amazon purchase here.